Terminal Aerodrome Forecast
Issued by NWS

Home | Current Version | Previous Version | Text Only | Print | Product List | Glossary On
Versions: 1 2 3 4 5 6 7 8 9 10 11 12 13 14 15 16 17 18 19 20
000
FTUS42 TJSJ 111800 AAA
TAFJBQ
TAF AMD
TJBQ 111804Z 1118/1218 08015G24KT P6SM VCSH SCT030 SCT050
      TEMPO 1118/1121 09015G28KT -TSRA SCT020CB BKN050
     FM112300 09008KT P6SM FEW040
     FM121200 09015G21KT P6SM FEW030=

USA.gov is the U.S. government's official web portal to all federal, state and local government web resources and services.